Portada
METAR-TAF:

METAR-TAF

Aeroports :

Halifax, Nova Escòcia, Canadà

latitud: 44-53N, longitud: 063-30W, altitud: 145 m

Observació

L'informe es va fer fa 1 hora i 14 minuts, a les 13:00 UTC
Vent 7 kt del Oest/Sud-Oest
Temperatura 18°C
Humitat 77%
Pressió 1013 hPa
Visibilitat: 24.1 km
Escasses núvols a una alçada de 15000 ft
Cel ennuvolat a una alçada de 18000 ft
Cel ennuvolat a una alçada de 29000 ft

METAR: CYHZ 221300Z 25007KT 15SM FEW150 BKN180 BKN290 18/14 A2990 RMK AC1AC6CI1 CI TR SLP128 DENSITY ALT 1000FT

Hora: 11:14 (14:14 UTC)

Pronòstic

L'informe es va fer fa 2 hores i 34 minuts, a les 11:40 UTC
Pronòstic vàlid del 22 a les 12 UTC al 23 a les 12 UTC
Vent 9 kt del Oest/Sud-Oest
Visibilitat: 10 km
Cel ennuvolat a una alçada de 12000 ft
Evolucionant progressivament
l' 22 a les 18 UTC al 22 a les 20 UTC
Vent 8 kt del Sud/Sud-Oest

TAF: CYHZ 221140Z 2212/2312 25009KT P6SM BKN120 BECMG 2218/2220 20008KT RMK NXT FCST BY 221500Z

Observacions i pronòstics meteorològics de més de 4000 aeroports (METAR i TAF).

Les estacions disponibles són els punts grocs i vermells al mapa.

Posi el ratolí al punt desitjat per veure el nom de l'estació.

Feu clic per veure les observacions i els pronòstics meteorològics.

Per canviar el mapa: feu clic els botons verds amb una creu de color negre per apropar; al botó verd amb un guió per allunyar la imatge; o en les fletxes verdes per a mapes adjacents.


METAR-TAF: